Venice, CA

11:30 PDT le 30 août 2014 (GMT -0700)
Abbot Kinney | Change Station
CLOSE
Current Station
Stations météorologiques personnelles
Location: Venice, CA
Altitude: 20 ft
Stations météo à proximité

Alt. 20 ft 33.99 °N, 118.47 °W | Updated 28 seconds ago

Clear
Ciel dégagé
72.5 ° F
Paraît 72 ° F
N
0.0
Vent Variable Vent de Ouest
Gusts 0.0 mph

Aujourd'hui
Haut(e) -- | Bas -- ° F
--% Risque de précip.
Hier
Haut(e) -- | Bas -- ° F
Precip. -- pouce
6:26 AM 7:22 PM
Lune montante, 23% visible
Pression 29.85 pouce
Visibilité 9.0 Miles terrestres
Nuages Ciel dégagé
indice de chaleur 72 ° F
Point de rosée 67 ° F
Humidité 83%
Précipitations 0.00 pouce
Profondeur de la couche neigeuse Non disponible.
UV 7.0 sur 12
Pollen 8.20 sur 12
Qualité de l'air Non disponible.
Flu Activity Non disponible.
METAR KSMO 301751Z VRB04KT 9SM CLR 24/17 A2985 RMK AO2 SLP106 T02440172 10244 20183 51005

More Conditions Fewer Conditions

Pression 29.85 pouce
Visibilité 9.0 Miles terrestres
Nuages Ciel dégagé
indice de chaleur 72 ° F
Point de rosée 67 ° F
Humidité 83%
Précipitations 0.00 pouce
Profondeur de la couche neigeuse Non disponible.
UV 7.0 sur 12
Pollen 8.20 sur 12
Qualité de l'air Non disponible.
Flu Activity Non disponible.
METAR KSMO 301751Z VRB04KT 9SM CLR 24/17 A2985 RMK AO2 SLP106 T02440172 10244 20183 51005

More Conditions Fewer Conditions

10-Day Weather Forecast

Almanac

Astronomie

Aug. 30, 2014 Lever Coucher
Temps réel 06:26 PDT 19:22 PDT
Crépuscule civil 06:00 PDT 19:47 PDT
Crépuscule nautique 05:30 PDT 20:17 PDT
Crépuscule astronomique 04:58 PDT 20:49 PDT
Lune 11:03 PDT 22:15 PDT
Durée de lumière visible 13h 47m
Longueur du jour
12h 55m
Tomorrow will be 2m 1s shorter.
Lune montante, 23% of the Moon is Illuminated
Aujourd'hui
Lune montante
Sep 2
Premier quartier
Sep 8
Pleine lune
Sep 15
Dernier quartier
Sep 24
Nouveau

Extrêmes aujourd'hui

State Highs State Lows

Community

WunderPhotos

Upload Photos

1,748,591 Photos téléchargées !

WunderBlogs® & News

Nearby

Qualité de l'air

  Qualité de l'air Indice de la qualité de l'air Polluant
Hier Bon
OZONE
dimanche Bon
PM10
dimanche Bon
OZONE
dimanche Bon
CO
dimanche Bon
NO2

Épaisseur de neige

Station Depth Altitude
Leavitt Meadows 0 in 7200 ft
Summit Meadow 0 in 9122 ft
Blue Lakes 0 in 8000 ft
Monitor Pass 0 in 8350 ft
Forestdale Creek 0 in 8029 ft

Activité sismique

Ville Distance Mag. Time & Date
Malibu, California 40 Miles terrestres 2.5 08:11 PDT
2014-08-30
Minimum magnitude displayed is 2.5.

Températures des eaux côtières

Lieu Température
Santa Monica Pier 72.0 ° F
Los Angeles, CA 66.0 ° F
La Jolla, CA 66.9 ° F

Stations météo à proximité